Time;durP1;ratioP1;P1;durP2;ratioP2;P2;SDS_P1;SDS_P2;PMS_P1;PMS_P2;Temp;Humidity;BMP_temperature;BMP_pressure;BME280_temperature;BME280_humidity;BME280_pressure;Samples;Min_cycle;Max_cycle;Signal;HPM_P1;HPM_P2
2022/04/15 00:00:45;;;;;;;17.38;6.10;;;12.70;99.90;;;;;;5054190;28;20037;-80
2022/04/15 00:03:11;;;;;;;13.68;5.40;;;12.70;99.90;;;;;;5054282;28;20013;-80
2022/04/15 00:05:40;;;;;;;9.30;4.07;;;12.60;99.90;;;;;;5054058;28;20461;-80
2022/04/15 00:08:07;;;;;;;6.28;4.25;;;12.60;99.90;;;;;;5052261;28;20053;-80
2022/04/15 00:10:34;;;;;;;8.13;4.72;;;12.50;99.90;;;;;;5054224;28;20032;-80
2022/04/15 00:13:02;;;;;;;6.72;4.30;;;12.50;99.90;;;;;;5054049;28;20021;-80
2022/04/15 00:15:27;;;;;;;8.38;4.40;;;12.40;99.90;;;;;;5054010;28;20021;-80
2022/04/15 00:17:54;;;;;;;6.55;4.25;;;12.20;99.90;;;;;;5054853;28;20044;-80
2022/04/15 00:20:20;;;;;;;7.05;3.90;;;12.10;99.90;;;;;;5054438;28;20025;-80
2022/04/15 00:22:46;;;;;;;6.97;4.05;;;12.00;99.90;;;;;;5053095;28;20036;-80
2022/04/15 00:25:12;;;;;;;9.18;4.57;;;12.00;99.90;;;;;;5054291;28;20021;-80
2022/04/15 00:27:39;;;;;;;11.32;5.10;;;11.90;99.90;;;;;;5054024;28;20031;-80
2022/04/15 00:30:07;;;;;;;16.25;6.30;;;11.90;99.90;;;;;;5054118;28;20043;-80
2022/04/15 00:32:32;;;;;;;11.77;5.43;;;11.90;99.90;;;;;;5053742;28;20078;-80
2022/04/15 00:34:58;;;;;;;11.40;5.18;;;11.90;99.90;;;;;;5054613;28;20054;-80
2022/04/15 00:37:24;;;;;;;14.25;6.03;;;12.00;99.90;;;;;;5052454;28;20025;-80
2022/04/15 00:39:50;;;;;;;16.20;6.65;;;12.00;99.90;;;;;;5053721;28;20117;-80
2022/04/15 00:42:16;;;;;;;16.38;6.75;;;12.00;99.90;;;;;;5052476;28;20029;-80
2022/04/15 00:44:42;;;;;;;15.95;6.97;;;12.10;99.90;;;;;;5053874;28;20024;-80
2022/04/15 00:47:24;;;;;;;14.25;5.63;;;12.10;99.90;;;;;;5052612;28;20021;-80
2022/04/15 00:49:50;;;;;;;42.25;11.93;;;12.10;99.90;;;;;;5052896;28;20056;-80
2022/04/15 00:52:20;;;;;;;47.92;13.48;;;12.10;99.90;;;;;;5053747;28;20064;-80
2022/04/15 00:54:51;;;;;;;39.72;10.48;;;12.10;99.90;;;;;;5054184;28;20052;-80
2022/04/15 00:57:22;;;;;;;22.15;7.65;;;11.90;99.90;;;;;;5053700;28;20016;-80
2022/04/15 00:59:51;;;;;;;18.40;7.47;;;11.70;99.90;;;;;;5053925;28;20040;-80
2022/04/15 01:02:18;;;;;;;13.88;5.60;;;11.50;99.90;;;;;;5052215;28;20028;-80
2022/04/15 01:04:44;;;;;;;11.32;5.47;;;11.40;99.90;;;;;;5053862;28;20063;-80
2022/04/15 01:07:14;;;;;;;10.80;5.53;;;11.30;99.90;;;;;;5055435;28;20018;-80
2022/04/15 01:09:43;;;;;;;10.43;5.18;;;11.30;99.90;;;;;;5054481;28;20075;-80
2022/04/15 01:12:10;;;;;;;14.55;4.93;;;11.30;99.90;;;;;;5054021;28;20032;-80
2022/04/15 01:14:39;;;;;;;9.95;5.20;;;11.20;99.90;;;;;;5052362;28;20025;-80
2022/04/15 01:17:05;;;;;;;7.38;4.40;;;11.20;99.90;;;;;;5054381;28;20485;-80
2022/04/15 01:19:31;;;;;;;9.25;4.15;;;11.10;99.90;;;;;;5057216;28;20048;-80
2022/04/15 01:22:02;;;;;;;8.95;4.35;;;11.00;99.90;;;;;;5057876;28;20077;-80
2022/04/15 01:24:28;;;;;;;;;;;10.90;99.90;;;;;;5057693;28;20028;-80
2022/04/15 01:26:54;;;;;;;7.18;3.88;;;10.90;99.90;;;;;;5057496;28;19928;-80
2022/04/15 01:29:20;;;;;;;6.95;4.28;;;10.90;99.90;;;;;;5057275;28;20473;-80
2022/04/15 01:31:45;;;;;;;8.30;3.90;;;10.90;99.90;;;;;;5056804;28;20021;-80
2022/04/15 01:34:11;;;;;;;6.75;4.03;;;10.80;99.90;;;;;;5057061;28;20105;-80
2022/04/15 01:36:37;;;;;;;5.82;3.72;;;10.80;99.90;;;;;;5057614;28;20021;-80
2022/04/15 01:39:03;;;;;;;6.18;3.75;;;10.80;99.90;;;;;;5056999;28;20107;-80
2022/04/15 01:41:29;;;;;;;6.50;3.90;;;10.90;99.90;;;;;;5057162;28;20025;-80
2022/04/15 01:43:55;;;;;;;5.82;3.80;;;10.90;99.90;;;;;;5056882;28;20031;-80
2022/04/15 01:46:20;;;;;;;6.32;4.25;;;10.90;99.90;;;;;;5055813;28;20044;-80
2022/04/15 01:48:46;;;;;;;10.65;6.93;;;10.90;99.90;;;;;;5056945;28;20025;-80
2022/04/15 01:51:12;;;;;;;17.13;10.00;;;10.80;99.90;;;;;;5055690;28;20028;-80
2022/04/15 01:53:37;;;;;;;24.33;12.90;;;10.70;99.90;;;;;;5057052;28;20025;-80
2022/04/15 01:56:05;;;;;;;31.48;15.15;;;10.70;99.90;;;;;;5058457;28;20053;-80
2022/04/15 01:58:33;;;;;;;24.83;13.05;;;10.70;99.90;;;;;;5057125;28;20017;-80
2022/04/15 02:00:58;;;;;;;29.70;15.20;;;10.70;99.90;;;;;;5056806;28;20355;-80
2022/04/15 02:03:24;;;;;;;40.08;18.73;;;10.70;99.90;;;;;;5056649;28;20031;-80
2022/04/15 02:05:50;;;;;;;36.38;17.63;;;10.60;99.90;;;;;;5056583;28;20075;-80
2022/04/15 02:08:16;;;;;;;29.67;15.52;;;10.60;99.90;;;;;;5056804;28;20025;-80
2022/04/15 02:10:41;;;;;;;35.03;16.65;;;10.60;99.90;;;;;;5056673;28;20530;-80
2022/04/15 02:13:07;;;;;;;28.45;14.65;;;10.60;99.90;;;;;;5056257;28;20021;-80
2022/04/15 02:15:33;;;;;;;21.30;11.48;;;10.60;99.90;;;;;;5057202;28;20025;-80
2022/04/15 02:17:58;;;;;;;19.65;11.57;;;10.60;99.90;;;;;;5056296;28;20049;-80
2022/04/15 02:20:24;;;;;;;19.17;11.05;;;10.60;99.90;;;;;;5056005;28;20039;-80
2022/04/15 02:22:52;;;;;;;16.17;9.90;;;10.60;99.90;;;;;;5056315;28;20049;-80
2022/04/15 02:25:17;;;;;;;18.48;10.68;;;10.60;99.90;;;;;;5055915;28;20056;-80
2022/04/15 02:27:44;;;;;;;18.90;10.75;;;10.60;99.90;;;;;;5054756;28;20029;-80
2022/04/15 02:30:10;;;;;;;15.68;9.23;;;10.70;99.90;;;;;;5055370;28;20130;-80
2022/04/15 02:32:35;;;;;;;21.48;11.15;;;10.60;99.90;;;;;;5056253;28;20485;-80
2022/04/15 02:35:01;;;;;;;17.83;10.73;;;10.70;99.90;;;;;;5056166;28;20061;-80
2022/04/15 02:37:27;;;;;;;18.70;9.93;;;10.70;99.90;;;;;;5056505;28;20025;-80
2022/04/15 02:39:53;;;;;;;12.90;7.55;;;10.70;99.90;;;;;;5055578;28;20032;-80
2022/04/15 02:42:18;;;;;;;12.10;5.20;;;10.70;99.90;;;;;;5055715;28;20032;-80
2022/04/15 02:44:44;;;;;;;5.53;4.50;;;10.70;99.90;;;;;;5055831;28;20032;-80
2022/04/15 02:47:10;;;;;;;8.73;4.97;;;10.60;99.90;;;;;;5054252;28;20025;-80
2022/04/15 02:49:36;;;;;;;7.28;4.43;;;10.50;99.90;;;;;;5055857;28;20024;-80
2022/04/15 02:52:02;;;;;;;6.32;4.35;;;10.50;99.90;;;;;;5055311;28;20021;-80
2022/04/15 02:54:29;;;;;;;7.70;5.15;;;10.40;99.90;;;;;;5055739;28;20358;-80
2022/04/15 02:56:55;;;;;;;6.78;5.05;;;10.40;99.90;;;;;;5055779;28;20079;-80
2022/04/15 02:59:20;;;;;;;6.00;4.47;;;10.40;99.90;;;;;;5055301;28;20027;-80
2022/04/15 03:01:48;;;;;;;6.55;4.45;;;10.40;99.90;;;;;;5054499;28;20029;-80
2022/04/15 03:04:13;;;;;;;7.10;4.60;;;10.40;99.90;;;;;;5055552;28;20032;-80
2022/04/15 03:06:39;;;;;;;6.93;4.38;;;10.40;99.90;;;;;;5055120;28;20017;-80
2022/04/15 03:09:05;;;;;;;6.65;4.22;;;10.50;99.90;;;;;;5055053;28;20040;-80
2022/04/15 03:11:32;;;;;;;6.47;4.55;;;10.50;99.90;;;;;;5055711;28;20377;-80
2022/04/15 03:13:58;;;;;;;8.27;4.75;;;10.50;99.90;;;;;;5055256;28;20427;-80
2022/04/15 03:16:23;;;;;;;7.97;4.60;;;10.60;99.90;;;;;;5053703;28;20098;-80
2022/04/15 03:18:49;;;;;;;6.38;4.50;;;10.50;99.90;;;;;;5055087;28;20021;-80
2022/04/15 03:21:15;;;;;;;6.43;4.30;;;10.50;99.90;;;;;;5054819;28;20028;-80
2022/04/15 03:23:42;;;;;;;11.68;5.10;;;10.50;99.90;;;;;;5053604;28;20036;-80
2022/04/15 03:26:08;;;;;;;9.10;4.90;;;10.50;99.90;;;;;;5055124;28;20021;-80
2022/04/15 03:28:34;;;;;;;7.15;4.03;;;10.40;99.90;;;;;;5053891;28;20028;-80
2022/04/15 03:31:00;;;;;;;6.95;4.40;;;10.40;99.90;;;;;;5055089;28;20024;-80
2022/04/15 03:33:25;;;;;;;9.52;5.28;;;10.30;99.90;;;;;;5055078;28;20048;-80
2022/04/15 03:35:51;;;;;;;6.43;4.50;;;10.20;99.90;;;;;;5055060;28;20047;-80
2022/04/15 03:38:17;;;;;;;6.10;4.85;;;10.20;99.90;;;;;;5054942;28;20021;-80
2022/04/15 03:40:42;;;;;;;9.27;5.60;;;10.20;99.90;;;;;;5054228;28;20033;-80
2022/04/15 03:43:09;;;;;;;10.13;6.80;;;10.10;99.90;;;;;;5052978;28;20032;-80
2022/04/15 03:45:35;;;;;;;12.18;7.32;;;10.10;99.90;;;;;;5054921;28;20028;-80
2022/04/15 03:48:01;;;;;;;9.82;6.63;;;10.20;99.90;;;;;;5055081;28;20029;-80
2022/04/15 03:50:26;;;;;;;10.23;5.68;;;10.20;99.90;;;;;;5053772;28;20036;-80
2022/04/15 03:52:53;;;;;;;8.02;5.35;;;10.30;99.90;;;;;;5054868;28;20029;-80
2022/04/15 03:55:22;;;;;;;7.60;5.13;;;10.30;99.90;;;;;;5054822;28;20045;-80
2022/04/15 03:57:48;;;;;;;7.68;4.22;;;10.40;99.90;;;;;;5054949;28;20021;-80
2022/04/15 04:00:19;;;;;;;9.85;4.75;;;10.40;99.90;;;;;;5054787;28;20416;-80
2022/04/15 04:02:47;;;;;;;6.82;4.82;;;10.40;99.90;;;;;;5055078;28;20039;-80
2022/04/15 04:05:13;;;;;;;5.78;4.80;;;10.30;99.90;;;;;;5054689;28;20033;-80
2022/04/15 04:07:40;;;;;;;7.22;4.90;;;10.30;99.90;;;;;;5054458;28;20025;-80
2022/04/15 04:10:06;;;;;;;7.75;4.90;;;10.20;99.90;;;;;;5054887;28;20087;-80
2022/04/15 04:12:33;;;;;;;9.02;5.60;;;10.20;99.90;;;;;;5054719;28;20083;-79
2022/04/15 04:15:00;;;;;;;6.53;4.53;;;10.20;99.90;;;;;;5054029;28;20017;-79
2022/04/15 04:17:26;;;;;;;6.75;4.65;;;10.20;99.90;;;;;;5054911;28;20074;-79
2022/04/15 04:19:52;;;;;;;7.65;4.32;;;10.20;99.90;;;;;;5058030;28;20025;-79
2022/04/15 04:22:17;;;;;;;7.60;5.07;;;10.30;99.90;;;;;;5058441;28;20029;-79
2022/04/15 04:24:43;;;;;;;7.18;5.03;;;10.30;99.90;;;;;;5055705;28;20017;-78
2022/04/15 04:27:09;;;;;;;7.82;5.07;;;10.40;99.90;;;;;;5054373;28;20032;-78
2022/04/15 04:29:35;;;;;;;153.45;50.67;;;10.40;99.90;;;;;;5055361;28;20108;-78
2022/04/15 04:32:01;;;;;;;111.97;39.58;;;10.30;99.90;;;;;;5055414;28;20032;-78
2022/04/15 04:34:27;;;;;;;63.75;24.92;;;10.40;99.90;;;;;;5055683;28;20029;-78
2022/04/15 04:36:53;;;;;;;38.65;16.98;;;10.30;99.90;;;;;;5056799;28;20013;-79
2022/04/15 04:39:18;;;;;;;19.42;10.80;;;10.30;99.90;;;;;;5054537;28;20560;-79
2022/04/15 04:41:44;;;;;;;14.10;8.68;;;10.30;99.90;;;;;;5054515;28;20033;-78
2022/04/15 04:44:11;;;;;;;9.85;7.15;;;10.40;99.90;;;;;;5054300;28;20100;-78
2022/04/15 04:46:38;;;;;;;9.88;6.50;;;10.40;99.90;;;;;;5054948;28;20036;-78
2022/04/15 04:49:04;;;;;;;11.25;6.93;;;10.30;99.90;;;;;;5055568;28;20029;-78
2022/04/15 04:51:30;;;;;;;10.55;7.65;;;10.30;99.90;;;;;;5054253;28;20086;-78
2022/04/15 04:53:55;;;;;;;11.77;8.98;;;10.20;99.90;;;;;;5057138;28;20025;-78
2022/04/15 04:56:21;;;;;;;14.23;10.55;;;10.20;99.90;;;;;;5058299;28;20025;-78
2022/04/15 04:58:47;;;;;;;13.25;11.48;;;10.20;99.90;;;;;;5058210;28;20021;-78
2022/04/15 05:01:12;;;;;;;10.57;8.50;;;10.30;99.90;;;;;;5058267;28;20044;-78
2022/04/15 05:03:38;;;;;;;9.88;6.95;;;10.30;99.90;;;;;;5058592;28;20021;-78
2022/04/15 05:06:04;;;;;;;9.07;7.22;;;10.30;99.90;;;;;;5058187;28;20033;-79
2022/04/15 05:08:29;;;;;;;10.68;6.43;;;10.30;99.90;;;;;;5056364;28;20021;-79
2022/04/15 05:10:55;;;;;;;8.82;6.45;;;10.40;99.90;;;;;;5057893;28;20504;-79
2022/04/15 05:13:21;;;;;;;9.00;6.50;;;10.40;99.90;;;;;;5057398;28;20056;-79
2022/04/15 05:15:46;;;;;;;11.02;7.15;;;10.40;99.90;;;;;;5057734;28;20477;-79
2022/04/15 05:18:14;;;;;;;11.55;8.07;;;10.40;99.90;;;;;;5057557;28;20017;-79
2022/04/15 05:20:40;;;;;;;13.40;8.30;;;10.40;99.90;;;;;;5057741;28;20024;-79
2022/04/15 05:23:06;;;;;;;16.45;8.90;;;10.40;99.90;;;;;;5057223;28;20393;-79
2022/04/15 05:25:31;;;;;;;15.05;9.65;;;10.40;99.90;;;;;;5056465;28;20465;-79
2022/04/15 05:27:58;;;;;;;13.52;8.63;;;10.30;99.90;;;;;;5057933;28;20033;-78
2022/04/15 05:30:24;;;;;;;12.40;8.68;;;10.30;99.90;;;;;;5057016;28;20024;-79
2022/04/15 05:32:50;;;;;;;10.60;7.50;;;10.20;99.90;;;;;;5055581;28;20025;-78
2022/04/15 05:35:16;;;;;;;10.98;7.00;;;10.20;99.90;;;;;;5055495;28;20535;-79
2022/04/15 05:37:41;;;;;;;12.82;7.53;;;10.20;99.90;;;;;;5057627;28;20017;-78
2022/04/15 05:40:08;;;;;;;11.98;7.53;;;10.20;99.90;;;;;;5056782;28;20044;-78
2022/04/15 05:42:33;;;;;;;9.95;6.88;;;10.30;99.90;;;;;;5057023;28;20044;-78
2022/04/15 05:44:59;;;;;;;8.55;6.55;;;10.30;99.90;;;;;;5057283;28;20485;-78
2022/04/15 05:47:25;;;;;;;9.95;6.72;;;10.30;99.90;;;;;;5057359;28;20029;-78
2022/04/15 05:49:51;;;;;;;13.13;7.45;;;10.30;99.90;;;;;;5056799;28;20056;-78
2022/04/15 05:52:16;;;;;;;10.38;6.85;;;10.40;99.90;;;;;;5056690;28;20052;-79
2022/04/15 05:54:42;;;;;;;10.20;6.47;;;10.40;99.90;;;;;;5056816;28;20085;-78
2022/04/15 05:57:08;;;;;;;10.35;6.63;;;10.40;99.90;;;;;;5055232;28;20079;-78
2022/04/15 05:59:34;;;;;;;9.60;6.35;;;10.40;99.90;;;;;;5055416;28;20484;-78
2022/04/15 06:01:59;;;;;;;8.85;6.25;;;10.50;99.90;;;;;;5056184;28;20435;-79
2022/04/15 06:04:25;;;;;;;10.82;6.57;;;10.50;99.90;;;;;;5055294;28;20075;-79
2022/04/15 06:06:51;;;;;;;10.98;6.63;;;10.50;99.90;;;;;;5056319;28;20032;-79
2022/04/15 06:09:16;;;;;;;12.45;7.32;;;10.60;99.90;;;;;;5056229;28;20025;-79
2022/04/15 06:11:42;;;;;;;8.32;6.32;;;10.60;99.90;;;;;;5056150;28;20055;-79
2022/04/15 06:14:08;;;;;;;12.95;6.90;;;10.60;99.90;;;;;;5054743;28;20025;-79
2022/04/15 06:16:37;;;;;;;10.90;7.10;;;10.60;99.90;;;;;;5055978;28;20092;-79
2022/04/15 06:19:04;;;;;;;12.70;7.65;;;10.60;99.90;;;;;;5055940;28;20100;-79
2022/04/15 06:21:29;;;;;;;11.25;8.40;;;10.60;99.90;;;;;;5055738;28;20072;-79
2022/04/15 06:23:55;;;;;;;13.00;8.60;;;10.60;99.90;;;;;;5054528;28;20489;-79
2022/04/15 06:26:20;;;;;;;17.30;10.27;;;10.70;99.90;;;;;;5056246;28;20395;-79
2022/04/15 06:28:46;;;;;;;14.65;9.95;;;10.70;99.90;;;;;;5056298;28;20457;-78
2022/04/15 06:31:12;;;;;;;15.00;9.43;;;10.70;99.90;;;;;;5055615;28;20032;-78
2022/04/15 06:33:37;;;;;;;15.98;10.57;;;10.70;99.90;;;;;;5055593;28;20035;-79
2022/04/15 06:36:04;;;;;;;16.17;10.70;;;10.70;99.90;;;;;;5055625;28;20021;-79
2022/04/15 06:38:30;;;;;;;15.95;10.60;;;10.70;99.90;;;;;;5055578;28;20029;-79
2022/04/15 06:40:56;;;;;;;16.90;12.13;;;10.70;99.90;;;;;;5055177;28;20504;-79
2022/04/15 06:43:21;;;;;;;24.40;19.15;;;10.60;99.90;;;;;;5055751;28;20025;-79
2022/04/15 06:45:47;;;;;;;20.08;15.55;;;10.70;99.90;;;;;;5055139;28;20025;-79
2022/04/15 06:48:13;;;;;;;17.17;12.82;;;10.70;99.90;;;;;;5055413;28;20098;-79
2022/04/15 06:50:39;;;;;;;17.88;12.55;;;10.70;99.90;;;;;;5053974;28;20025;-79
2022/04/15 06:53:05;;;;;;;17.40;12.23;;;10.70;99.90;;;;;;5055146;28;20579;-79
2022/04/15 06:55:31;;;;;;;16.33;11.63;;;10.70;99.90;;;;;;5053720;28;20070;-79
2022/04/15 06:57:57;;;;;;;14.80;10.63;;;10.70;99.90;;;;;;5056343;28;20381;-79
2022/04/15 07:00:23;;;;;;;20.58;14.60;;;10.70;99.90;;;;;;5055317;28;20028;-79
2022/04/15 07:02:49;;;;;;;24.08;16.40;;;10.80;99.90;;;;;;5055018;28;20108;-79
2022/04/15 07:05:16;;;;;;;23.35;15.68;;;10.80;99.90;;;;;;5054764;28;20025;-79
2022/04/15 07:07:43;;;;;;;18.75;12.70;;;10.80;99.90;;;;;;5055475;28;20109;-79
2022/04/15 07:10:11;;;;;;;21.35;13.63;;;10.80;99.90;;;;;;5054958;28;20389;-79
2022/04/15 07:12:37;;;;;;;30.42;19.70;;;10.70;99.90;;;;;;5054939;28;20029;-79
2022/04/15 07:15:04;;;;;;;22.75;15.35;;;10.80;99.90;;;;;;5054939;28;20025;-79
2022/04/15 07:17:30;;;;;;;23.52;14.25;;;10.80;99.90;;;;;;5055423;28;20025;-79
2022/04/15 07:19:56;;;;;;;24.48;14.98;;;10.80;99.90;;;;;;5053215;28;20052;-79
2022/04/15 07:22:22;;;;;;;23.65;13.98;;;10.80;99.90;;;;;;5054496;28;20017;-79
2022/04/15 07:24:49;;;;;;;17.77;12.68;;;10.80;99.90;;;;;;5054339;28;20104;-79
2022/04/15 07:27:16;;;;;;;17.45;12.00;;;10.80;99.90;;;;;;5054590;28;20113;-79
2022/04/15 07:29:42;;;;;;;13.68;10.25;;;10.80;99.90;;;;;;5054420;28;20074;-79
2022/04/15 07:32:08;;;;;;;15.68;10.48;;;10.90;99.90;;;;;;5054431;28;20021;-79
2022/04/15 07:34:37;;;;;;;17.95;11.32;;;10.90;99.90;;;;;;5054733;28;20104;-79
2022/04/15 07:37:04;;;;;;;17.02;11.68;;;10.90;99.90;;;;;;5054372;28;20020;-79
2022/04/15 07:39:31;;;;;;;18.55;12.93;;;11.00;99.90;;;;;;5054706;28;20025;-79
2022/04/15 07:41:57;;;;;;;22.13;14.00;;;11.10;99.90;;;;;;5054642;28;20385;-79
2022/04/15 07:44:24;;;;;;;19.27;13.57;;;11.10;99.90;;;;;;5054748;28;20028;-79
2022/04/15 07:46:50;;;;;;;18.65;12.75;;;11.20;99.90;;;;;;5053922;28;20096;-79
2022/04/15 07:49:15;;;;;;;18.35;13.07;;;11.30;99.90;;;;;;5054011;28;20076;-79
2022/04/15 07:51:42;;;;;;;17.83;13.25;;;11.30;99.90;;;;;;5053790;28;20025;-79
2022/04/15 07:54:08;;;;;;;19.10;12.63;;;11.40;99.90;;;;;;5053830;28;20025;-79
2022/04/15 07:56:35;;;;;;;21.10;15.30;;;11.50;99.90;;;;;;5053732;28;20030;-79
2022/04/15 07:59:01;;;;;;;23.08;16.65;;;11.50;99.90;;;;;;5052426;28;20025;-79
2022/04/15 08:01:27;;;;;;;21.88;15.15;;;11.50;99.90;;;;;;5053963;28;20031;-79
2022/04/15 08:03:54;;;;;;;21.73;15.45;;;11.40;99.90;;;;;;5053717;28;20045;-79
2022/04/15 08:06:20;;;;;;;21.75;16.17;;;11.50;99.90;;;;;;5054549;28;20017;-79
2022/04/15 08:08:46;;;;;;;21.92;15.57;;;11.50;99.90;;;;;;5053713;28;20029;-79
2022/04/15 08:11:12;;;;;;;20.27;14.20;;;11.50;99.90;;;;;;5053474;28;20032;-79
2022/04/15 08:13:37;;;;;;;20.20;14.95;;;11.50;99.90;;;;;;5053731;28;20028;-79
2022/04/15 08:16:04;;;;;;;17.60;14.40;;;11.60;99.90;;;;;;5053427;28;20088;-79
2022/04/15 08:18:30;;;;;;;18.75;14.05;;;11.70;99.90;;;;;;5053519;28;20021;-78
2022/04/15 08:20:56;;;;;;;20.33;13.82;;;11.80;99.90;;;;;;5053600;28;20031;-79
2022/04/15 08:23:22;;;;;;;20.02;14.70;;;11.80;99.90;;;;;;5053731;28;20112;-78
2022/04/15 08:25:48;;;;;;;18.40;14.65;;;11.90;99.90;;;;;;5052110;28;20053;-78
2022/04/15 08:28:14;;;;;;;19.13;14.23;;;11.90;99.90;;;;;;5052836;28;20075;-79
2022/04/15 08:30:40;;;;;;;17.30;12.63;;;11.90;99.90;;;;;;5053611;28;20029;-79
2022/04/15 08:33:07;;;;;;;19.65;14.10;;;11.90;99.90;;;;;;5053666;28;20037;-79
2022/04/15 08:35:34;;;;;;;22.90;16.65;;;11.90;99.90;;;;;;5052104;28;20021;-78
2022/04/15 08:38:00;;;;;;;23.23;16.58;;;11.90;99.90;;;;;;5052388;28;20021;-79
2022/04/15 08:40:27;;;;;;;19.75;14.52;;;11.90;99.90;;;;;;5053614;28;20087;-78
2022/04/15 08:42:53;;;;;;;19.60;13.32;;;11.80;99.90;;;;;;5053735;28;20032;-78
2022/04/15 08:45:21;;;;;;;18.55;12.60;;;11.80;99.90;;;;;;5053950;28;20028;-78
2022/04/15 08:47:48;;;;;;;15.52;11.45;;;11.80;99.90;;;;;;5053519;28;20024;-79
2022/04/15 08:50:14;;;;;;;18.23;14.82;;;11.70;99.90;;;;;;5053590;28;20032;-78
2022/04/15 08:52:41;;;;;;;16.02;13.45;;;11.70;99.90;;;;;;5053467;28;20040;-78
2022/04/15 08:55:07;;;;;;;20.25;13.60;;;11.70;99.90;;;;;;5053450;28;20025;-79
2022/04/15 08:57:33;;;;;;;16.65;13.80;;;11.70;99.90;;;;;;5053546;28;20467;-79
2022/04/15 09:00:00;;;;;;;18.48;14.32;;;11.60;99.90;;;;;;5052336;28;20044;-78
2022/04/15 09:02:35;;;;;;;19.23;13.90;;;11.60;99.90;;;;;;5053646;28;20033;-78
2022/04/15 09:05:01;;;;;;;16.48;12.32;;;11.70;99.90;;;;;;5054300;28;20021;-78
2022/04/15 09:07:32;;;;;;;19.05;15.10;;;11.70;99.90;;;;;;5056292;28;20025;-78
2022/04/15 09:09:59;;;;;;;;;;;11.80;99.90;;;;;;5056581;28;20046;-78
2022/04/15 09:12:28;;;;;;;15.32;11.43;;;11.80;99.90;;;;;;5056275;28;19909;-78
2022/04/15 09:15:18;;;;;;;18.63;13.75;;;11.80;99.90;;;;;;5055144;28;20478;-78
2022/04/15 09:17:49;;;;;;;20.92;15.90;;;11.90;99.90;;;;;;5054262;28;20044;-78
2022/04/15 09:20:15;;;;;;;20.10;15.45;;;12.00;99.90;;;;;;5053298;28;20104;-78
2022/04/15 09:22:41;;;;;;;20.20;15.20;;;12.00;99.90;;;;;;5053546;28;20452;-79
2022/04/15 09:25:09;;;;;;;22.05;16.48;;;12.00;99.90;;;;;;5053298;28;20112;-79
2022/04/15 09:27:38;;;;;;;21.45;16.05;;;12.00;99.90;;;;;;5053565;28;20025;-78
2022/04/15 09:30:04;;;;;;;20.30;15.60;;;12.10;99.90;;;;;;5053144;28;20047;-79
2022/04/15 09:32:30;;;;;;;20.00;15.77;;;12.10;99.90;;;;;;5052058;28;20033;-79
2022/04/15 09:35:07;;;;;;;20.58;14.85;;;12.20;99.90;;;;;;5053174;28;20028;-79
2022/04/15 09:37:39;;;;;;;20.42;16.70;;;12.20;99.90;;;;;;5053432;28;20365;-79
2022/04/15 09:40:26;;;;;;;21.83;16.05;;;12.20;99.90;;;;;;5054556;28;20025;-78
2022/04/15 09:42:54;;;;;;;20.50;15.80;;;12.20;99.90;;;;;;5057022;28;20468;-78
2022/04/15 09:45:24;;;;;;;18.63;14.25;;;12.20;99.90;;;;;;5056811;28;20095;-78
2022/04/15 09:47:57;;;;;;;19.95;14.65;;;12.20;99.90;;;;;;5057010;28;20021;-78
2022/04/15 09:50:43;;;;;;;19.10;14.50;;;12.20;99.90;;;;;;5057415;28;20054;-79
2022/04/15 09:53:13;;;;;;;18.20;13.80;;;12.20;99.90;;;;;;5057467;28;20431;-78
2022/04/15 09:55:40;;;;;;;18.05;12.80;;;12.20;99.90;;;;;;5056797;28;20461;-78
2022/04/15 09:58:28;;;;;;;23.77;17.02;;;12.20;99.90;;;;;;5056721;28;20025;-78
2022/04/15 10:00:56;;;;;;;22.92;17.50;;;12.30;99.90;;;;;;5056648;28;20048;-79
2022/04/15 10:03:26;;;;;;;23.30;16.50;;;12.30;99.90;;;;;;5056758;28;20103;-79
2022/04/15 10:05:57;;;;;;;23.10;17.00;;;12.30;99.90;;;;;;5056681;28;20017;-78
2022/04/15 10:08:25;;;;;;;21.88;18.13;;;12.40;99.90;;;;;;5056696;28;20025;-79
2022/04/15 10:10:52;;;;;;;26.23;18.50;;;12.40;99.90;;;;;;5056433;28;20024;-78
2022/04/15 10:13:20;;;;;;;24.90;16.40;;;12.50;99.90;;;;;;5057358;28;20033;-78
2022/04/15 10:15:49;;;;;;;23.02;15.77;;;12.50;99.90;;;;;;5056552;28;20040;-80
2022/04/15 10:18:14;;;;;;;19.25;14.85;;;12.50;99.90;;;;;;5055143;28;20022;-79
2022/04/15 10:20:42;;;;;;;20.48;15.75;;;12.50;99.90;;;;;;5056314;28;20048;-83
2022/04/15 10:23:11;;;;;;;23.30;16.55;;;12.50;99.90;;;;;;5056033;28;20501;-84
2022/04/15 10:25:38;;;;;;;20.25;16.02;;;12.50;99.90;;;;;;5055862;28;20087;-83
2022/04/15 10:28:13;;;;;;;18.05;13.20;;;12.50;99.90;;;;;;5055836;28;20053;-83
2022/04/15 10:30:50;;;;;;;17.15;13.80;;;12.50;99.90;;;;;;5056256;28;20025;-83
2022/04/15 10:33:30;;;;;;;20.98;15.52;;;12.50;99.90;;;;;;5054544;28;20025;-83
2022/04/15 10:36:00;;;;;;;21.13;14.60;;;12.60;99.90;;;;;;5056020;28;20107;-83
2022/04/15 10:38:25;;;;;;;26.70;19.85;;;12.60;99.90;;;;;;5054362;28;20091;-83
2022/04/15 10:40:51;;;;;;;27.20;21.23;;;12.50;99.90;;;;;;5055756;28;20517;-83
2022/04/15 10:43:25;;;;;;;34.35;25.75;;;12.60;99.90;;;;;;5055424;28;20075;-84
2022/04/15 10:46:10;;;;;;;23.77;18.60;;;12.50;99.90;;;;;;5054363;28;20024;-83
2022/04/15 10:48:37;;;;;;;23.30;19.40;;;12.60;99.90;;;;;;5055837;28;20028;-83
2022/04/15 10:51:30;;;;;;;18.33;15.90;;;12.60;99.90;;;;;;5053624;28;20449;-83
2022/04/15 10:54:16;;;;;;;21.13;16.60;;;12.50;99.90;;;;;;5053782;28;20037;-83
2022/04/15 10:57:02;;;;;;;24.48;19.48;;;12.50;99.90;;;;;;5054426;28;20021;-83
2022/04/15 11:02:21;;;;;;;21.08;18.42;;;12.50;99.90;;;;;;5055269;28;20078;-83
2022/04/15 11:04:52;;;;;;;16.23;13.88;;;12.60;99.90;;;;;;5054970;28;20025;-83
2022/04/15 11:07:40;;;;;;;22.90;18.42;;;12.80;99.90;;;;;;5055147;28;20430;-83
2022/04/15 11:10:16;;;;;;;26.92;19.13;;;13.00;99.90;;;;;;5055408;28;20108;-83
2022/04/15 11:12:43;;;;;;;71.50;45.45;;;13.30;99.90;;;;;;5055940;28;20021;-83
2022/04/15 11:15:09;;;;;;;28.23;20.10;;;13.40;99.90;;;;;;5055777;28;20021;-83
2022/04/15 11:17:39;;;;;;;27.73;21.00;;;13.60;99.90;;;;;;5054394;28;20075;-83
2022/04/15 11:20:08;;;;;;;23.90;18.80;;;13.90;99.90;;;;;;5054121;28;20210;-83
2022/04/15 11:22:39;;;;;;;20.30;14.90;;;14.00;99.90;;;;;;5055422;28;20104;-83
2022/04/15 11:25:07;;;;;;;19.77;13.70;;;14.00;99.90;;;;;;5053283;28;20056;-83
2022/04/15 11:27:39;;;;;;;28.02;20.40;;;14.00;99.90;;;;;;5053494;28;20074;-83
2022/04/15 11:30:16;;;;;;;24.00;17.95;;;14.00;99.90;;;;;;5053367;28;20036;-83
2022/04/15 11:32:51;;;;;;;37.60;27.80;;;14.00;99.90;;;;;;5054604;28;20469;-83
2022/04/15 11:35:31;;;;;;;30.00;22.55;;;14.00;99.90;;;;;;5053003;28;20493;-83
2022/04/15 11:38:03;;;;;;;25.17;20.83;;;14.10;99.90;;;;;;5054364;28;20032;-83
2022/04/15 11:40:31;;;;;;;25.40;21.00;;;14.20;99.90;;;;;;5052992;28;20348;-83
2022/04/15 11:43:00;;;;;;;19.67;15.70;;;14.30;99.90;;;;;;5053654;28;20393;-83
2022/04/15 11:45:40;;;;;;;20.13;15.38;;;14.40;99.90;;;;;;5054114;28;20021;-83
2022/04/15 11:48:20;;;;;;;15.73;13.30;;;14.50;99.90;;;;;;5052904;28;20029;-83
2022/04/15 11:50:46;;;;;;;26.20;18.75;;;14.70;99.90;;;;;;5052842;28;20028;-83
2022/04/15 11:53:13;;;;;;;16.13;12.25;;;14.90;99.90;;;;;;5053944;28;20074;-83
2022/04/15 11:55:58;;;;;;;19.40;13.95;;;15.10;99.90;;;;;;5052855;28;20021;-83
2022/04/15 11:58:25;;;;;;;17.92;13.02;;;15.20;99.90;;;;;;5054238;28;20126;-82
2022/04/15 12:00:56;;;;;;;20.17;13.32;;;15.30;99.90;;;;;;5054561;28;20531;-83
2022/04/15 12:03:22;;;;;;;16.45;12.02;;;15.40;99.90;;;;;;5053631;28;20469;-84
2022/04/15 12:05:49;;;;;;;12.93;10.40;;;15.50;99.90;;;;;;5052638;28;20485;-84
2022/04/15 12:08:16;;;;;;;11.38;9.48;;;15.50;99.90;;;;;;5052556;28;20060;-83
2022/04/15 12:10:44;;;;;;;13.13;10.23;;;15.50;99.90;;;;;;5052670;28;20053;-83
2022/04/15 12:13:11;;;;;;;12.30;9.15;;;15.50;99.90;;;;;;5053911;28;20025;-83
2022/04/15 12:15:37;;;;;;;12.63;9.95;;;15.50;99.90;;;;;;5053139;28;20512;-83
2022/04/15 12:18:04;;;;;;;13.57;9.13;;;15.50;99.90;;;;;;5052327;28;20025;-83
2022/04/15 12:20:34;;;;;;;24.15;15.30;;;15.40;99.90;;;;;;5054417;28;20043;-83
2022/04/15 12:23:01;;;;;;;132.00;20.63;;;15.30;99.90;;;;;;5054180;28;20028;-83
2022/04/15 12:26:06;;;;;;;15.05;9.80;;;15.30;99.90;;;;;;5052716;28;20098;-83
2022/04/15 12:29:47;;;;;;;11.40;8.80;;;15.30;99.90;;;;;;5053311;28;20543;-83
2022/04/15 12:30:59;;;;;;;11.45;8.80;;;15.20;99.90;;;;;;5053672;28;20037;-83
2022/04/15 12:33:25;;;;;;;10.23;7.95;;;15.10;99.90;;;;;;5052548;28;20484;-83
2022/04/15 12:36:03;;;;;;;12.65;9.30;;;15.10;99.90;;;;;;5054421;28;20108;-81
2022/04/15 12:38:29;;;;;;;19.00;12.90;;;15.00;99.90;;;;;;5053566;28;20045;-82